Dimanche 18 mars 2018


AUTEUIL - 18/03/2018 (R1) 8 courses - Haies Steeple-chase

Course Nb P. Discipline Distance Dotation Arrivée
C1 14:05 Prix Rush 10 Haies 3000 m. 52000 € 4 - 10 - 9 - 7 - 2
C2 14:35 Prix Didier Mescam 6 Steeple-chase 3500 m. 50000 € 5 - 6 - 2 - 3 - 4
C3 15:15 Prix Les Dimanches Au Galop - Prix Pr... 17 Haies 3900 m. 100000 € 12 - 8 - 1 - 11 - 10
C4 15:45 Prix d'Indy 6 Haies 3600 m. 125000 € 2 - 3 - 1 - 4 - 5
C5 16:25 Prix Fernand Roy 9 Steeple-chase 4400 m. 50000 € 4 - 7 - 8 - 1 - 2
C6 16:55 Prix Troytown 5 Steeple-chase 4400 m. 145000 € 3 - 4 - 5 - 1 - 2
C7 17:30 Prix Lilium 18 Haies 3900 m. 56000 € 1 - 8 - 6 - 17 - 14
C8 18:00 Prix Samaritain 12 Haies 3500 m. 45000 € 7 - 5 - 12 - 2 - 8

LYON PARILLY - 18/03/2018 (R2) 8 courses - Plat Haies Steeple-chase

Course Nb P. Discipline Distance Dotation Arrivée
C1 11:35 Prix Raymond Roux-Meulien 8 Plat 1600 m. 22000 € 3 - 7 - 2 - 4 - 6
C2 12:05 Prix Charles Giraudon 6 Plat 2200 m. 24000 € 5 - 4 - 1 - 2 - 6
C3 12:35 Prix Réveillon Chocolatier (Prix de ... 11 Plat 1600 m. 18000 € 6 - 8 - 4 - 7 - 10
C4 13:05 Prix des Brotteaux 11 Plat 1600 m. 16000 € 11 - 5 - 6 - 3 - 1
C5 13:35 Prix Paul Londe 11 Plat 2200 m. 22000 € 4 - 1 - 11 - 2 - 6
C6 14:12 Prix Noël Biron 6 Steeple-chase 4100 m. 21000 € 6 - 4 - 2 - 1 - 5
C7 14:42 Prix du Mont-Verdun 7 Haies 3800 m. 20000 € 3 - 8 - 4 - 6 - 5
C8 15:20 Prix Hubert Seutet 9 Haies 3400 m. 20000 € 8 - 6 - 1 - 3 - 2

CORDEMAIS - 18/03/2018 (R3) 8 courses - Attelé Monté

Course Nb P. Discipline Distance Dotation Arrivée
C1 13:20 Prix de la Ville de Couéron 15 Monté 2825 m. 21000 € 8 - 14 - 15 - 4 - 9
C2 13:50 Prix de la Ville du Temple-de-Bretagne 9 Attelé 2825 m. 21000 € 6 - 9 - 7 - 8 - 1
C3 14:20 Prix de la Ville de Vigneux 16 Attelé 2825 m. 20000 € 11 - 15 - 10 - 5 - 1
C4 14:50 Prix de la Ville de Malville 15 Monté 2825 m. 25000 € 1 - 5 - 8 - 13 - 2
C5 15:30 Prix Estuaire-et-Sillon 11 Attelé 2825 m. 21000 € 11 - 6 - 10 - 4 - 2
C6 16:05 Prix Ville de Saint-Etienne-de-Montluc 14 Attelé 2825 m. 21000 € 2 - 4 - 10 - 9 - 11
C7 16:40 Prix de la Ville de Cordemais 18 Attelé 2825 m. 25000 € 12 - 5 - 11 - 7 - 16
C8 17:10 Prix de la Ville de Savenay 14 Attelé 2825 m. 21000 € 13 - 7 - 9 - 8 - 4

DURTAL - 18/03/2018 (R6) 1 courses - Steeple-chase

Course Nb P. Discipline Distance Dotation Arrivée
C6 17:00 Prix de la Victoire 8 Steeple-chase 4050 m. 16000 € 7 - 3 - 6 - 1 - 5

CHARTRES - 18/03/2018 (R8) 9 courses - Attelé Monté

Course Nb P. Discipline Distance Dotation Arrivée
C1 13:30 Prix de la Société des Courses de D... 14 Monté 2800 m. 14000 € 14 - 10 - 9 - 13 - 1
C2 14:00 Prix Fleuriste Isabelle Menard - (Gr A) 12 Attelé 2300 m. 12000 € 12 - 11 - 10 - 8 - 9
C3 14:30 Prix Tombola Chartres - (Gr B) 12 Attelé 2300 m. 12000 € 4 - 2 - 12 - 9 - 1
C4 15:00 Prix Brette Immobilier 14 Attelé 2800 m. 25000 € 1 - 13 - 8 - 10 - 3
C5 15:40 Prix de la Société des Courses de R... 14 Attelé 2800 m. 12000 € 13 - 12 - 10 - 4 - 5
C6 16:10 Prix Www.hippodrome-Chartres.com (Gr B) 14 Attelé 2800 m. 12000 € 12 - 4 - 3 - 13 - 2
C7 16:40 Prix Www.courseschevaux.fr (Gr C) 14 Attelé 2800 m. 12000 € 12 - 11 - 9 - 10 - 13
C8 17:10 Prix de la Société des Courses de l... 12 Attelé 3300 m. 16000 € 12 - 3 - 4 - 9 - 7
C9 17:40 Prix Bar Pmu Le Triangle A Mainvilliers 16 Attelé 2800 m. 5000 € 5 - 8 - 13 - 7 - 12

NANCY - 18/03/2018 (R10) 9 courses - Attelé Haies Cross-Country Steeple-chase

Course Nb P. Discipline Distance Dotation Arrivée
C1 14:00 Prix du Musée Lorrain (Groupe A) 14 Attelé 2600 m. 12000 €
C2 14:30 Prix du Musée Lorrain (Groupe B) 13 Attelé 2600 m. 12000 €
C3 15:00 Prix Cheval Liberté 12 Attelé 2600 m. 25000 €
C4 15:30 Prix de l'Abbaye des Prémontrés 12 Haies 3400 m. 17000 €
C5 16:00 Prix des Luthiers de Mirecourt 16 Attelé 2600 m. 16000 €
C6 16:30 Prix Marcel Frances 6 Haies 3800 m. 17000 €
C7 17:00 Prix du Syndicat des Eleveurs de Meur... 5 Cross-Country 4500 m. 18000 €
C8 17:30 Prix France Bleu - Sud Lorraine 14 Attelé 2600 m. 5000 €
C9 18:00 Prix du Haras de Rozières-aux-Salines 6 Steeple-chase 3800 m. 17000 €

CHOLET - 18/03/2018 (R11) 7 courses - Attelé

Course Nb P. Discipline Distance Dotation Arrivée
C1 14:30 Prix Bois Régnier 14 Attelé 2100 m. 10000 € 4 - 5 - 13 - 1 - 14
C2 15:00 Prix Asia Store (Gr A) 18 Attelé 2800 m. 12000 € 12 - 17 - 9 - 3 - 10
C3 15:30 Prix Asia Store (Gr B) 18 Attelé 2800 m. 12000 € 8 - 4 - 15 - 17 - 13
C4 16:00 Prix Larribeau 18 Attelé 2800 m. 24000 € 6 - 18 - 17 - 14 - 2
C5 16:30 Prix de la Société du Cheval Franç... 16 Attelé 2800 m. 13000 € 9 - 13 - 8 - 1 - 16
C6 17:00 Prix de la Société du Cheval Franç... 16 Attelé 2800 m. 13000 € 12 - 8 - 3 - 9 - 5
C7 17:30 Prix Axa Merlet 16 Attelé 2800 m. 16000 € 2 - 10 - 9 - 5 - 6

Le Programme du lendemain est dispo. !
Mercredi 26 février 2020